createdAt,value
2022-09-22T00:00:59.513Z,16.10
2022-09-22T00:03:37.595Z,16.00
2022-09-22T00:06:13.864Z,16.00
2022-09-22T00:08:47.575Z,15.90
2022-09-22T00:11:24.081Z,16.00
2022-09-22T00:13:57.689Z,16.10
2022-09-22T00:16:40.965Z,16.20
2022-09-22T00:19:14.071Z,16.30
2022-09-22T00:21:44.741Z,16.40
2022-09-22T00:24:15.191Z,16.50
2022-09-22T00:26:45.914Z,16.60
2022-09-22T00:29:18.750Z,16.50
2022-09-22T00:31:49.052Z,16.50
2022-09-22T00:34:22.291Z,16.50
2022-09-22T00:36:53.520Z,16.50
2022-09-22T00:39:24.032Z,16.40
2022-09-22T00:41:56.096Z,16.30
2022-09-22T00:44:46.347Z,16.10
2022-09-22T00:47:35.346Z,15.90
2022-09-22T00:50:14.265Z,15.80
2022-09-22T00:53:05.478Z,15.70
2022-09-22T00:56:07.646Z,15.70
2022-09-22T00:58:48.818Z,15.60
2022-09-22T01:01:22.095Z,15.60
2022-09-22T01:03:54.234Z,15.60
2022-09-22T01:06:29.598Z,15.70
2022-09-22T01:09:02.284Z,15.80
2022-09-22T01:11:32.817Z,15.90
2022-09-22T01:14:21.100Z,16.10
2022-09-22T01:16:55.918Z,16.50
2022-09-22T01:19:53.813Z,16.80
2022-09-22T01:22:49.227Z,17.10
2022-09-22T01:25:40.956Z,17.20
2022-09-22T01:28:39.444Z,17.30
2022-09-22T01:31:15.530Z,17.40
2022-09-22T01:34:09.532Z,17.50
2022-09-22T01:36:40.821Z,17.50
2022-09-22T01:39:36.975Z,17.50
2022-09-22T01:42:25.100Z,17.50
2022-09-22T01:45:03.122Z,17.50
2022-09-22T01:47:42.544Z,17.60
2022-09-22T01:50:20.000Z,17.60
2022-09-22T01:52:51.978Z,17.70
2022-09-22T01:55:42.707Z,17.70
2022-09-22T01:58:17.997Z,17.70
2022-09-22T02:01:14.257Z,17.70
2022-09-22T02:04:09.635Z,17.60
2022-09-22T02:07:05.261Z,17.60
2022-09-22T02:09:38.295Z,17.70
2022-09-22T02:12:08.870Z,17.80
2022-09-22T02:14:39.327Z,18.00
2022-09-22T02:17:10.166Z,18.10
2022-09-22T02:19:42.669Z,18.10
2022-09-22T02:22:14.629Z,18.20
2022-09-22T02:24:47.656Z,18.10
2022-09-22T02:27:27.254Z,18.20
2022-09-22T02:30:12.768Z,18.20
2022-09-22T02:32:48.488Z,18.20
2022-09-22T02:35:19.604Z,18.10
2022-09-22T02:38:05.010Z,18.10
2022-09-22T02:40:50.662Z,18.10
2022-09-22T02:43:48.492Z,18.00
2022-09-22T02:46:18.294Z,17.90
2022-09-22T02:49:02.612Z,17.80
2022-09-22T02:51:33.997Z,17.80
2022-09-22T02:54:05.638Z,17.80
2022-09-22T02:56:36.060Z,17.70
2022-09-22T02:59:06.433Z,17.60
2022-09-22T03:01:36.741Z,17.60
2022-09-22T03:04:08.184Z,17.60
2022-09-22T03:06:40.053Z,17.60
2022-09-22T03:09:10.314Z,17.50
2022-09-22T03:11:40.522Z,17.40
2022-09-22T03:14:10.748Z,17.30
2022-09-22T03:16:41.732Z,17.00
2022-09-22T03:19:12.085Z,16.90
2022-09-22T03:21:42.379Z,16.70
2022-09-22T03:24:12.672Z,16.60
2022-09-22T03:26:42.872Z,16.50
2022-09-22T03:29:13.258Z,16.60
2022-09-22T03:31:44.538Z,16.60
2022-09-22T03:34:14.976Z,16.70
2022-09-22T03:36:45.382Z,16.80
2022-09-22T03:39:15.593Z,16.90
2022-09-22T03:41:46.704Z,17.00
2022-09-22T03:44:16.951Z,17.20
2022-09-22T03:46:47.177Z,17.40
2022-09-22T03:49:17.362Z,17.60
2022-09-22T03:51:48.115Z,17.80
2022-09-22T03:54:18.335Z,18.00
2022-09-22T03:56:48.947Z,18.30
2022-09-22T03:59:20.447Z,18.50
2022-09-22T04:01:53.518Z,18.70
2022-09-22T04:04:26.784Z,18.80
2022-09-22T04:06:57.038Z,18.80
2022-09-22T04:09:27.268Z,18.70
2022-09-22T04:11:57.851Z,18.70
2022-09-22T04:14:28.421Z,18.60
2022-09-22T04:16:59.731Z,18.60
2022-09-22T04:19:30.840Z,18.50
2022-09-22T04:22:01.017Z,18.50
2022-09-22T04:24:31.270Z,18.50
2022-09-22T04:27:18.966Z,18.40
2022-09-22T04:29:50.857Z,18.20
2022-09-22T04:32:21.396Z,18.20
2022-09-22T04:34:51.929Z,18.10
2022-09-22T04:37:22.285Z,18.10
2022-09-22T04:39:52.698Z,18.00
2022-09-22T04:42:23.392Z,18.00
2022-09-22T04:44:53.790Z,18.00
2022-09-22T04:47:24.109Z,18.00
2022-09-22T04:49:54.368Z,17.90
2022-09-22T04:52:25.419Z,17.90
2022-09-22T04:54:55.610Z,17.90
2022-09-22T04:57:26.255Z,17.80
2022-09-22T04:59:56.480Z,17.70
2022-09-22T05:02:26.691Z,17.70
2022-09-22T05:04:57.442Z,17.60
2022-09-22T05:07:27.747Z,17.60
2022-09-22T05:09:58.438Z,17.50
2022-09-22T05:12:29.227Z,17.30
2022-09-22T05:15:02.014Z,17.10
2022-09-22T05:17:32.195Z,17.00
2022-09-22T05:20:02.572Z,17.00
2022-09-22T05:22:36.366Z,16.90
2022-09-22T05:25:15.924Z,16.80
2022-09-22T05:27:48.676Z,16.80
2022-09-22T05:30:20.317Z,16.80
2022-09-22T05:32:51.410Z,16.80
2022-09-22T05:35:24.389Z,16.80
2022-09-22T05:37:55.821Z,16.80
2022-09-22T05:40:27.779Z,16.80
2022-09-22T05:42:58.083Z,16.80
2022-09-22T05:45:28.347Z,16.80
2022-09-22T05:48:01.928Z,16.80
2022-09-22T05:50:33.409Z,16.80
2022-09-22T05:53:14.074Z,16.80
2022-09-22T05:55:46.520Z,16.90
2022-09-22T05:58:17.234Z,17.00
2022-09-22T06:00:49.131Z,17.00
2022-09-22T06:03:19.686Z,17.00
2022-09-22T06:05:50.244Z,17.10
2022-09-22T06:08:27.438Z,17.00
2022-09-22T06:10:57.651Z,17.00
2022-09-22T06:13:28.372Z,17.00
2022-09-22T06:15:59.205Z,17.00
2022-09-22T06:18:29.542Z,16.90
2022-09-22T06:21:00.072Z,16.90
2022-09-22T06:23:30.430Z,16.80
2022-09-22T06:26:01.574Z,16.70
2022-09-22T06:28:31.843Z,16.70
2022-09-22T06:31:03.017Z,16.60
2022-09-22T06:33:33.536Z,16.50
2022-09-22T06:36:04.385Z,16.40
2022-09-22T06:38:34.622Z,16.30
2022-09-22T06:41:06.086Z,16.20
2022-09-22T06:43:39.523Z,16.10
2022-09-22T06:46:11.420Z,16.00
2022-09-22T06:48:41.955Z,15.90
2022-09-22T06:51:14.102Z,15.80
2022-09-22T06:53:49.788Z,15.70
2022-09-22T06:56:22.096Z,15.60
2022-09-22T06:59:09.537Z,15.60
2022-09-22T07:01:41.694Z,15.50
2022-09-22T07:04:13.362Z,15.50
2022-09-22T07:06:44.516Z,15.40
2022-09-22T07:09:14.719Z,15.40
2022-09-22T07:11:45.504Z,15.30
2022-09-22T07:14:15.654Z,15.30
2022-09-22T07:16:46.855Z,15.20
2022-09-22T07:19:17.132Z,15.20
2022-09-22T07:21:49.256Z,15.20
2022-09-22T07:24:19.531Z,15.10
2022-09-22T07:26:49.871Z,15.10
2022-09-22T07:29:22.437Z,15.00
2022-09-22T07:31:52.867Z,15.00
2022-09-22T07:34:23.588Z,15.00
2022-09-22T07:36:54.713Z,14.90
2022-09-22T07:39:27.800Z,14.90
2022-09-22T07:41:58.835Z,14.90
2022-09-22T07:44:46.849Z,14.80
2022-09-22T07:47:17.016Z,14.80
2022-09-22T07:49:47.186Z,14.80
2022-09-22T07:52:17.894Z,14.70
2022-09-22T07:54:48.136Z,14.70
2022-09-22T07:57:18.490Z,14.60
2022-09-22T07:59:49.684Z,14.60
2022-09-22T08:02:20.006Z,14.60
2022-09-22T08:04:50.261Z,14.60
2022-09-22T08:07:20.465Z,14.50
2022-09-22T08:09:50.876Z,14.50
2022-09-22T08:12:22.160Z,14.50
2022-09-22T08:14:55.504Z,14.50
2022-09-22T08:17:26.717Z,14.50
2022-09-22T08:19:59.383Z,14.50
2022-09-22T08:22:30.830Z,14.50
2022-09-22T08:25:02.475Z,14.50
2022-09-22T08:27:32.815Z,14.50
2022-09-22T08:30:03.581Z,14.50
2022-09-22T08:32:34.230Z,14.50
2022-09-22T08:35:05.962Z,14.50
2022-09-22T08:37:37.739Z,14.50
2022-09-22T08:40:11.361Z,14.50
2022-09-22T08:42:43.333Z,14.40
2022-09-22T08:45:31.082Z,14.40
2022-09-22T08:48:34.015Z,14.40
2022-09-22T08:51:48.940Z,14.40
2022-09-22T08:54:21.071Z,14.40
2022-09-22T08:56:59.636Z,14.30
2022-09-22T08:59:48.191Z,14.30
2022-09-22T09:02:40.506Z,14.30
2022-09-22T09:05:32.775Z,14.30
2022-09-22T09:08:39.885Z,14.40
2022-09-22T09:11:12.941Z,14.40
2022-09-22T09:14:10.115Z,14.40
2022-09-22T09:16:47.263Z,14.30
2022-09-22T09:19:26.105Z,14.30
2022-09-22T09:22:03.635Z,14.30
2022-09-22T09:27:43.540Z,14.40
2022-09-22T09:30:21.619Z,14.30
2022-09-22T09:33:06.510Z,14.30
2022-09-22T09:35:47.184Z,14.30
2022-09-22T09:38:43.582Z,14.30
2022-09-22T09:41:16.148Z,14.30
2022-09-22T09:43:48.055Z,14.30
2022-09-22T09:46:28.237Z,14.30
2022-09-22T09:49:16.085Z,14.30
2022-09-22T09:51:53.531Z,14.40
2022-09-22T09:54:24.395Z,14.30
2022-09-22T09:57:12.908Z,14.30
2022-09-22T10:00:06.597Z,14.40
2022-09-22T10:03:03.396Z,14.40
2022-09-22T10:05:37.526Z,14.40
2022-09-22T10:08:30.215Z,14.40
2022-09-22T10:11:03.566Z,14.40
2022-09-22T10:13:39.913Z,14.30
2022-09-22T10:16:37.521Z,14.30
2022-09-22T10:19:33.619Z,14.30
2022-09-22T10:22:29.048Z,14.30
2022-09-22T10:25:08.146Z,14.30
2022-09-22T10:27:38.433Z,14.30
2022-09-22T10:30:23.496Z,14.30
2022-09-22T10:33:17.820Z,14.30
2022-09-22T10:36:11.827Z,14.20
2022-09-22T10:38:44.857Z,14.20
2022-09-22T10:41:30.213Z,14.20
2022-09-22T10:44:27.385Z,14.20
2022-09-22T10:47:24.798Z,14.20
2022-09-22T10:50:31.650Z,14.20
2022-09-22T10:53:28.109Z,14.10
2022-09-22T10:56:39.761Z,14.10
2022-09-22T10:59:26.062Z,14.10
2022-09-22T11:02:02.832Z,14.10
2022-09-22T11:04:53.037Z,14.00
2022-09-22T11:07:53.338Z,14.00
2022-09-22T11:10:54.605Z,14.00
2022-09-22T11:13:45.302Z,14.10
2022-09-22T11:16:25.455Z,14.00
2022-09-22T11:19:02.450Z,14.00
2022-09-22T11:21:43.667Z,14.00
2022-09-22T11:24:19.971Z,14.00
2022-09-22T11:26:58.915Z,14.00
2022-09-22T11:29:47.165Z,14.00
2022-09-22T11:32:36.306Z,13.90
2022-09-22T11:35:22.012Z,13.90
2022-09-22T11:38:32.473Z,13.90
2022-09-22T11:41:34.504Z,13.80
2022-09-22T11:44:45.441Z,13.80
2022-09-22T11:47:39.991Z,13.70
2022-09-22T11:50:35.461Z,13.70
2022-09-22T11:53:31.823Z,13.70
2022-09-22T11:56:33.215Z,13.70
2022-09-22T11:59:27.723Z,13.70
2022-09-22T12:02:06.404Z,13.70
2022-09-22T12:04:46.808Z,13.70
2022-09-22T12:07:28.550Z,13.70
2022-09-22T12:10:09.162Z,13.70
2022-09-22T12:12:41.211Z,13.60
2022-09-22T12:15:37.444Z,13.70
2022-09-22T12:18:18.202Z,13.60
2022-09-22T12:20:52.464Z,13.70
2022-09-22T12:23:47.702Z,13.70
2022-09-22T12:26:32.382Z,13.70
2022-09-22T12:29:10.774Z,13.70
2022-09-22T12:31:42.762Z,13.70
2022-09-22T12:34:25.912Z,13.70
2022-09-22T12:37:01.281Z,13.70
2022-09-22T12:39:35.437Z,13.70
2022-09-22T12:42:20.187Z,13.70
2022-09-22T12:45:01.649Z,13.70
2022-09-22T12:47:55.559Z,13.70
2022-09-22T12:50:35.248Z,13.70
2022-09-22T12:53:31.907Z,13.70
2022-09-22T12:56:03.609Z,13.70
2022-09-22T12:58:35.249Z,13.70
2022-09-22T13:01:35.406Z,13.70
2022-09-22T13:04:16.485Z,13.60
2022-09-22T13:06:48.121Z,13.70
2022-09-22T13:09:27.565Z,13.60
2022-09-22T13:12:17.183Z,13.60
2022-09-22T13:15:22.352Z,13.60
2022-09-22T13:17:53.383Z,13.60
2022-09-22T13:20:26.399Z,13.60
2022-09-22T13:22:58.370Z,13.60
2022-09-22T13:25:34.076Z,13.60
2022-09-22T13:28:10.406Z,13.60
2022-09-22T13:30:43.240Z,13.60
2022-09-22T13:33:25.185Z,13.60
2022-09-22T13:36:28.032Z,13.60
2022-09-22T13:39:03.143Z,13.60
2022-09-22T13:41:42.774Z,13.60
2022-09-22T13:44:15.942Z,13.60
2022-09-22T13:46:50.117Z,13.60
2022-09-22T13:49:31.086Z,13.60
2022-09-22T13:52:13.144Z,13.60
2022-09-22T13:54:43.908Z,13.60
2022-09-22T13:57:29.082Z,13.60
2022-09-22T14:00:06.014Z,13.60
2022-09-22T14:02:37.270Z,13.60
2022-09-22T14:05:20.296Z,13.60
2022-09-22T14:08:10.549Z,13.60
2022-09-22T14:10:45.136Z,13.60
2022-09-22T14:13:44.889Z,13.60
2022-09-22T14:16:27.212Z,13.50
2022-09-22T14:19:01.824Z,13.50
2022-09-22T14:21:33.733Z,13.50
2022-09-22T14:24:04.539Z,13.50
2022-09-22T14:26:44.258Z,13.40
2022-09-22T14:29:27.523Z,13.40
2022-09-22T14:32:12.501Z,13.30
2022-09-22T14:34:47.937Z,13.30
2022-09-22T14:37:41.114Z,13.30
2022-09-22T14:40:25.342Z,13.30
2022-09-22T14:43:07.222Z,13.20
2022-09-22T14:46:00.697Z,13.30
2022-09-22T14:48:36.632Z,13.30
2022-09-22T14:51:17.336Z,13.30
2022-09-22T14:53:53.016Z,13.30
2022-09-22T14:56:30.657Z,13.30
2022-09-22T14:59:29.205Z,13.40
2022-09-22T15:02:17.683Z,13.30
2022-09-22T15:04:55.353Z,13.40
2022-09-22T15:07:32.504Z,13.40
2022-09-22T15:10:07.206Z,13.40
2022-09-22T15:12:49.356Z,13.40
2022-09-22T15:15:23.861Z,13.40
2022-09-22T15:18:21.426Z,13.40
2022-09-22T15:21:00.770Z,13.40
2022-09-22T15:23:43.449Z,13.50
2022-09-22T15:26:25.610Z,13.50
2022-09-22T15:29:01.101Z,13.40
2022-09-22T15:31:33.836Z,13.50
2022-09-22T15:34:05.321Z,13.50
2022-09-22T15:36:39.098Z,13.50
2022-09-22T15:39:18.514Z,13.50
2022-09-22T15:41:52.031Z,13.50
2022-09-22T15:44:23.186Z,13.50
2022-09-22T15:46:56.302Z,13.50
2022-09-22T15:49:28.030Z,13.50
2022-09-22T15:51:59.509Z,13.50
2022-09-22T15:54:31.313Z,13.50
2022-09-22T15:57:03.695Z,13.50
2022-09-22T15:59:36.769Z,13.60
2022-09-22T16:02:14.055Z,13.60
2022-09-22T16:04:47.605Z,13.60
2022-09-22T16:07:18.167Z,13.50
2022-09-22T16:09:49.938Z,13.60
2022-09-22T16:12:23.321Z,13.60
2022-09-22T16:14:53.815Z,13.60
2022-09-22T16:17:25.815Z,13.60
2022-09-22T16:19:56.153Z,13.60
2022-09-22T16:22:27.130Z,13.60
2022-09-22T16:24:57.920Z,13.60
2022-09-22T16:27:31.573Z,13.50
2022-09-22T16:30:02.368Z,13.60
2022-09-22T16:32:34.182Z,13.60
2022-09-22T16:35:05.472Z,13.60
2022-09-22T16:37:36.996Z,13.60
2022-09-22T16:40:07.785Z,13.60
2022-09-22T16:42:40.786Z,13.50
2022-09-22T16:45:11.211Z,13.50
2022-09-22T16:47:41.409Z,13.60
2022-09-22T16:50:13.963Z,13.60
2022-09-22T16:52:44.094Z,13.60
2022-09-22T16:55:14.789Z,13.50
2022-09-22T16:57:44.946Z,13.50
2022-09-22T17:00:15.554Z,13.60
2022-09-22T17:02:48.570Z,13.50
2022-09-22T17:05:19.202Z,13.50
2022-09-22T17:07:53.541Z,13.50
2022-09-22T17:10:25.536Z,13.50
2022-09-22T17:12:57.666Z,13.50
2022-09-22T17:15:28.027Z,13.50
2022-09-22T17:17:58.150Z,13.50
2022-09-22T17:20:28.560Z,13.50
2022-09-22T17:22:59.286Z,13.50
2022-09-22T17:25:30.739Z,13.50
2022-09-22T17:28:01.178Z,13.50
2022-09-22T17:30:32.799Z,13.60
2022-09-22T17:33:04.383Z,13.50
2022-09-22T17:35:34.551Z,13.60
2022-09-22T17:38:05.728Z,13.60
2022-09-22T17:40:37.055Z,13.50
2022-09-22T17:43:07.272Z,13.50
2022-09-22T17:45:39.923Z,13.50
2022-09-22T17:48:28.441Z,13.50
2022-09-22T17:51:18.166Z,13.50
2022-09-22T17:54:06.070Z,13.50
2022-09-22T17:56:36.243Z,13.50
2022-09-22T17:59:06.554Z,13.50
2022-09-22T18:01:36.873Z,13.50
2022-09-22T18:04:07.431Z,13.50
2022-09-22T18:06:37.610Z,13.50
2022-09-22T18:09:09.459Z,13.50
2022-09-22T18:11:45.273Z,13.60
2022-09-22T18:14:15.981Z,13.60
2022-09-22T18:16:46.219Z,13.60
2022-09-22T18:19:16.809Z,13.60
2022-09-22T18:21:47.017Z,13.60
2022-09-22T18:24:20.345Z,13.60
2022-09-22T18:26:54.790Z,13.60
2022-09-22T18:29:25.554Z,13.60
2022-09-22T18:32:00.631Z,13.50
2022-09-22T18:34:34.924Z,13.50
2022-09-22T18:37:07.701Z,13.50
2022-09-22T18:39:37.849Z,13.50
2022-09-22T18:42:12.582Z,13.50
2022-09-22T18:44:43.867Z,13.50
2022-09-22T18:47:19.941Z,13.50
2022-09-22T18:49:52.344Z,13.50
2022-09-22T18:52:26.494Z,13.50
2022-09-22T18:54:57.658Z,13.50
2022-09-22T18:57:28.945Z,13.50
2022-09-22T19:00:01.546Z,13.50
2022-09-22T19:02:31.978Z,13.50
2022-09-22T19:05:02.695Z,13.50
2022-09-22T19:07:43.555Z,13.40
2022-09-22T19:10:24.361Z,13.40
2022-09-22T19:12:56.301Z,13.40
2022-09-22T19:15:27.323Z,13.40
2022-09-22T19:17:57.494Z,13.40
2022-09-22T19:20:28.324Z,13.50
2022-09-22T19:22:58.843Z,13.50
2022-09-22T19:25:29.462Z,13.50
2022-09-22T19:27:59.763Z,13.50
2022-09-22T19:30:31.659Z,13.50
2022-09-22T19:33:02.485Z,13.50
2022-09-22T19:35:35.948Z,13.50
2022-09-22T19:38:08.642Z,13.40
2022-09-22T19:40:38.882Z,13.40
2022-09-22T19:43:09.327Z,13.50
2022-09-22T19:45:40.033Z,13.40
2022-09-22T19:48:11.776Z,13.40
2022-09-22T19:50:42.095Z,13.40
2022-09-22T19:53:12.374Z,13.40
2022-09-22T19:55:43.195Z,13.40
2022-09-22T19:58:13.369Z,13.40
2022-09-22T20:00:45.370Z,13.40
2022-09-22T20:03:15.702Z,13.40
2022-09-22T20:05:47.374Z,13.30
2022-09-22T20:08:18.195Z,13.30
2022-09-22T20:11:05.948Z,13.30
2022-09-22T20:14:01.195Z,13.30
2022-09-22T20:16:32.578Z,13.30
2022-09-22T20:19:03.302Z,13.30
2022-09-22T20:21:34.911Z,13.20
2022-09-22T20:24:06.883Z,13.20
2022-09-22T20:26:38.411Z,13.20
2022-09-22T20:29:09.931Z,13.30
2022-09-22T20:31:40.841Z,13.20
2022-09-22T20:34:16.565Z,13.20
2022-09-22T20:36:48.365Z,13.30
2022-09-22T20:39:18.572Z,13.30
2022-09-22T20:41:48.707Z,13.30
2022-09-22T20:44:19.938Z,13.30
2022-09-22T20:46:53.325Z,13.30
2022-09-22T20:49:23.979Z,13.40
2022-09-22T20:51:54.231Z,13.40
2022-09-22T20:54:26.084Z,13.40
2022-09-22T20:56:56.918Z,13.40
2022-09-22T20:59:27.547Z,13.50
2022-09-22T21:02:00.246Z,13.50
2022-09-22T21:04:31.976Z,13.60
2022-09-22T21:07:02.513Z,13.70
2022-09-22T21:09:50.685Z,13.80
2022-09-22T21:12:21.009Z,13.80
2022-09-22T21:14:51.194Z,13.90
2022-09-22T21:17:22.130Z,14.00
2022-09-22T21:19:52.812Z,14.00
2022-09-22T21:22:23.599Z,14.00
2022-09-22T21:24:54.231Z,14.10
2022-09-22T21:27:24.490Z,14.10
2022-09-22T21:29:55.576Z,14.10
2022-09-22T21:32:26.245Z,14.20
2022-09-22T21:34:57.901Z,14.20
2022-09-22T21:37:28.378Z,14.20
2022-09-22T21:39:58.987Z,14.20
2022-09-22T21:42:29.343Z,14.30
2022-09-22T21:44:59.827Z,14.30
2022-09-22T21:47:30.028Z,14.30
2022-09-22T21:50:00.847Z,14.30
2022-09-22T21:52:31.361Z,14.40
2022-09-22T21:55:01.524Z,14.40
2022-09-22T21:57:34.335Z,14.40
2022-09-22T22:00:06.099Z,14.50
2022-09-22T22:02:55.999Z,14.50
2022-09-22T22:05:26.639Z,14.60
2022-09-22T22:07:56.956Z,14.70
2022-09-22T22:10:27.187Z,14.70
2022-09-22T22:12:58.643Z,14.70
2022-09-22T22:15:28.879Z,14.80
2022-09-22T22:17:59.153Z,14.90
2022-09-22T22:20:29.802Z,15.10
2022-09-22T22:23:00.442Z,15.20
2022-09-22T22:25:31.413Z,15.30
2022-09-22T22:28:01.578Z,15.40
2022-09-22T22:30:31.897Z,15.60
2022-09-22T22:33:02.626Z,15.70
2022-09-22T22:35:33.277Z,15.90
2022-09-22T22:38:03.442Z,16.10
2022-09-22T22:40:33.889Z,16.20
2022-09-22T22:43:04.130Z,16.20
2022-09-22T22:45:34.318Z,16.30
2022-09-22T22:48:04.628Z,16.30
2022-09-22T22:50:34.944Z,16.30
2022-09-22T22:53:05.094Z,16.40
2022-09-22T22:55:36.307Z,16.30
2022-09-22T22:58:07.753Z,16.40
2022-09-22T23:00:37.983Z,16.40
2022-09-22T23:03:08.184Z,16.50
2022-09-22T23:05:44.107Z,16.50
2022-09-22T23:08:15.079Z,16.60
2022-09-22T23:10:45.475Z,16.60
2022-09-22T23:13:16.890Z,16.60
2022-09-22T23:15:47.400Z,16.60
2022-09-22T23:18:20.807Z,16.60
2022-09-22T23:20:51.851Z,16.60
2022-09-22T23:23:21.985Z,16.60
2022-09-22T23:25:53.381Z,16.60
2022-09-22T23:28:23.615Z,16.50
2022-09-22T23:31:02.733Z,16.50
2022-09-22T23:33:33.477Z,16.60
2022-09-22T23:36:03.885Z,16.60
2022-09-22T23:38:37.012Z,16.60
2022-09-22T23:41:08.276Z,16.50
2022-09-22T23:43:39.263Z,16.60
2022-09-22T23:46:11.651Z,16.60
2022-09-22T23:48:42.559Z,16.60
2022-09-22T23:51:13.695Z,16.60
2022-09-22T23:53:45.570Z,16.70
2022-09-22T23:56:16.224Z,16.70
2022-09-22T23:58:48.547Z,16.80
